createdAt,value
2022-11-10T00:01:34.875Z,16.32
2022-11-10T00:06:56.977Z,16.31
2022-11-10T00:12:19.996Z,16.32
2022-11-10T00:17:42.033Z,16.30
2022-11-10T00:23:04.429Z,16.32
2022-11-10T00:28:26.895Z,16.39
2022-11-10T00:33:48.513Z,16.45
2022-11-10T00:39:10.896Z,16.45
2022-11-10T00:44:32.684Z,16.40
2022-11-10T00:49:54.646Z,16.40
2022-11-10T00:55:16.870Z,16.44
2022-11-10T01:00:38.822Z,16.46
2022-11-10T01:06:09.471Z,16.45
2022-11-10T01:11:31.421Z,16.41
2022-11-10T01:16:53.302Z,16.35
2022-11-10T01:22:15.569Z,16.29
2022-11-10T01:27:37.802Z,16.24
2022-11-10T01:32:59.570Z,16.19
2022-11-10T01:38:22.135Z,16.16
2022-11-10T01:43:44.174Z,16.14
2022-11-10T01:49:07.071Z,16.14
2022-11-10T01:54:46.663Z,16.17
2022-11-10T02:00:10.823Z,16.21
2022-11-10T02:05:33.481Z,16.23
2022-11-10T02:10:55.361Z,16.16
2022-11-10T02:16:18.506Z,16.14
2022-11-10T02:21:40.534Z,16.14
2022-11-10T02:27:03.098Z,16.11
2022-11-10T02:32:24.710Z,16.08
2022-11-10T02:37:46.523Z,16.06
2022-11-10T02:43:15.510Z,16.07
2022-11-10T02:48:39.120Z,16.13
2022-11-10T02:54:01.374Z,16.18
2022-11-10T02:59:23.582Z,16.21
2022-11-10T03:04:45.835Z,16.23
2022-11-10T03:10:08.286Z,16.26
2022-11-10T03:15:30.253Z,16.29
2022-11-10T03:20:51.914Z,16.31
2022-11-10T03:26:13.913Z,16.33
2022-11-10T03:31:35.742Z,16.32
2022-11-10T03:36:57.510Z,16.31
2022-11-10T03:42:19.739Z,16.29
2022-11-10T03:47:44.831Z,16.27
2022-11-10T03:53:06.624Z,16.28
2022-11-10T03:58:28.361Z,16.28
2022-11-10T04:03:57.689Z,16.30
2022-11-10T04:09:19.344Z,16.31
2022-11-10T04:14:41.277Z,16.30
2022-11-10T04:20:03.862Z,16.33
2022-11-10T04:25:26.092Z,16.36
2022-11-10T04:30:49.305Z,16.42
2022-11-10T04:36:13.383Z,16.46
2022-11-10T04:41:35.634Z,16.60
2022-11-10T04:46:57.680Z,16.73
2022-11-10T04:52:19.602Z,16.86
2022-11-10T04:57:43.238Z,17.02
2022-11-10T05:03:07.964Z,17.26
2022-11-10T05:08:29.894Z,17.51
2022-11-10T05:13:52.048Z,17.83
2022-11-10T05:19:13.793Z,18.20
2022-11-10T05:24:35.573Z,18.52
2022-11-10T05:29:57.623Z,18.64
2022-11-10T05:35:19.285Z,18.52
2022-11-10T05:40:40.953Z,18.14
2022-11-10T05:46:03.006Z,17.70
2022-11-10T05:51:25.109Z,17.12
2022-11-10T05:56:47.586Z,16.72
2022-11-10T06:02:09.541Z,16.53
2022-11-10T06:07:31.440Z,16.15
2022-11-10T06:12:54.683Z,15.91
2022-11-10T06:18:16.329Z,15.89
2022-11-10T06:23:37.977Z,15.97
2022-11-10T06:29:00.210Z,16.13
2022-11-10T06:34:23.119Z,16.30
2022-11-10T06:39:44.877Z,16.41
2022-11-10T06:45:07.971Z,16.39
2022-11-10T06:50:30.988Z,16.41
2022-11-10T06:55:53.143Z,16.43
2022-11-10T07:01:17.649Z,16.44
2022-11-10T07:06:43.692Z,16.44
2022-11-10T07:12:06.252Z,16.49
2022-11-10T07:17:28.349Z,16.80
2022-11-10T07:22:50.337Z,17.11
2022-11-10T07:28:12.987Z,17.27
2022-11-10T07:33:35.440Z,17.50
2022-11-10T07:38:57.304Z,17.62
2022-11-10T07:44:22.463Z,17.72
2022-11-10T07:49:46.227Z,17.68
2022-11-10T07:55:08.286Z,17.45
2022-11-10T08:00:30.295Z,17.39
2022-11-10T08:05:52.417Z,17.22
2022-11-10T08:11:14.770Z,17.06
2022-11-10T08:16:36.383Z,17.03
2022-11-10T08:21:58.369Z,17.10
2022-11-10T08:27:20.383Z,17.23
2022-11-10T08:32:43.169Z,17.36
2022-11-10T08:38:11.790Z,17.41
2022-11-10T08:43:33.973Z,17.64
2022-11-10T08:48:55.920Z,17.94
2022-11-10T08:54:17.714Z,18.25
2022-11-10T08:59:39.453Z,18.52
2022-11-10T09:05:01.520Z,18.77
2022-11-10T09:10:23.966Z,19.00
2022-11-10T09:15:45.929Z,19.06
2022-11-10T09:21:08.426Z,19.15
2022-11-10T09:26:31.643Z,19.28
2022-11-10T09:31:53.719Z,19.39
2022-11-10T09:37:15.674Z,19.48
2022-11-10T09:42:40.824Z,19.51
2022-11-10T09:48:13.067Z,19.51
2022-11-10T09:53:41.814Z,19.55
2022-11-10T09:59:14.419Z,19.50
2022-11-10T10:05:07.796Z,19.57
2022-11-10T10:10:37.558Z,19.47
2022-11-10T10:16:05.218Z,19.31
2022-11-10T10:21:48.746Z,19.29
2022-11-10T10:27:19.458Z,19.47
2022-11-10T10:32:41.256Z,19.66
2022-11-10T10:38:05.756Z,19.80
2022-11-10T10:43:27.767Z,19.88
2022-11-10T10:49:32.165Z,19.99
2022-11-10T10:55:01.154Z,20.04
2022-11-10T11:00:23.887Z,20.08
2022-11-10T11:05:59.807Z,20.04
2022-11-10T11:11:26.781Z,20.09
2022-11-10T11:17:13.402Z,20.13
2022-11-10T11:22:35.485Z,20.15
2022-11-10T11:28:22.340Z,20.13
2022-11-10T11:34:13.583Z,20.11
2022-11-10T11:40:01.356Z,20.13
2022-11-10T11:45:58.757Z,20.15
2022-11-10T11:51:31.140Z,20.13
2022-11-10T11:56:56.950Z,20.10
2022-11-10T12:02:52.492Z,20.11
2022-11-10T12:08:41.571Z,20.12
2022-11-10T12:14:27.570Z,20.14
2022-11-10T12:20:14.853Z,20.16
2022-11-10T12:25:58.608Z,20.16
2022-11-10T12:31:25.164Z,20.15
2022-11-10T12:36:48.994Z,20.13
2022-11-10T12:42:21.364Z,20.11
2022-11-10T12:47:45.538Z,20.11
2022-11-10T12:53:20.372Z,20.09
2022-11-10T12:58:42.758Z,20.08
2022-11-10T13:04:05.633Z,20.07
2022-11-10T13:09:34.077Z,20.05
2022-11-10T13:14:55.900Z,19.98
2022-11-10T13:20:50.991Z,19.95
2022-11-10T13:26:45.834Z,19.89
2022-11-10T13:32:13.630Z,19.84
2022-11-10T13:37:35.232Z,19.77
2022-11-10T13:43:00.051Z,19.71
2022-11-10T13:48:36.853Z,19.62
2022-11-10T13:54:45.100Z,19.51
2022-11-10T14:00:37.272Z,19.39
2022-11-10T14:06:05.192Z,19.27
2022-11-10T14:11:37.167Z,19.18
2022-11-10T14:16:59.818Z,19.06
2022-11-10T14:22:33.260Z,18.95
2022-11-10T14:27:58.401Z,18.85
2022-11-10T14:33:23.103Z,18.76
2022-11-10T14:38:45.631Z,18.62
2022-11-10T14:44:13.653Z,18.51
2022-11-10T14:49:35.715Z,18.38
2022-11-10T14:54:57.885Z,18.27
2022-11-10T15:00:24.022Z,18.19
2022-11-10T15:05:47.865Z,18.10
2022-11-10T15:11:37.662Z,18.03
2022-11-10T15:17:01.270Z,17.95
2022-11-10T15:22:30.978Z,17.89
2022-11-10T15:28:02.320Z,17.82
2022-11-10T15:33:27.801Z,17.78
2022-11-10T15:39:12.081Z,17.76
2022-11-10T15:44:33.846Z,17.73
2022-11-10T15:49:55.534Z,17.70
2022-11-10T15:55:24.564Z,17.66
2022-11-10T16:00:47.313Z,17.64
2022-11-10T16:06:18.279Z,17.59
2022-11-10T16:11:43.553Z,17.55
2022-11-10T16:17:06.270Z,17.52
2022-11-10T16:22:31.836Z,17.47
2022-11-10T16:27:53.793Z,17.46
2022-11-10T16:33:17.481Z,17.46
2022-11-10T16:38:39.894Z,17.46
2022-11-10T16:44:01.822Z,17.47
2022-11-10T16:49:26.965Z,17.49
2022-11-10T16:54:48.752Z,17.47
2022-11-10T17:00:11.139Z,17.40
2022-11-10T17:05:35.050Z,17.42
2022-11-10T17:10:57.494Z,17.40
2022-11-10T17:16:28.865Z,17.38
2022-11-10T17:21:53.300Z,17.33
2022-11-10T17:27:15.644Z,17.32
2022-11-10T17:33:03.454Z,17.30
2022-11-10T17:38:30.852Z,17.28
2022-11-10T17:43:53.042Z,17.26
2022-11-10T17:49:14.740Z,17.24
2022-11-10T17:54:36.604Z,17.23
2022-11-10T17:59:58.876Z,17.22
2022-11-10T18:05:21.001Z,17.21
2022-11-10T18:10:49.257Z,17.18
2022-11-10T18:16:13.441Z,17.15
2022-11-10T18:21:34.964Z,17.12
2022-11-10T18:26:57.664Z,17.11
2022-11-10T18:32:19.799Z,17.09
2022-11-10T18:37:43.740Z,17.09
2022-11-10T18:43:07.721Z,17.08
2022-11-10T18:48:34.719Z,17.04
2022-11-10T18:53:59.027Z,17.02
2022-11-10T18:59:20.777Z,16.98
2022-11-10T19:04:42.838Z,16.96
2022-11-10T19:10:06.372Z,16.98
2022-11-10T19:15:28.353Z,16.95
2022-11-10T19:20:50.365Z,16.95
2022-11-10T19:26:22.573Z,16.97
2022-11-10T19:31:45.576Z,16.97
2022-11-10T19:37:07.182Z,16.99
2022-11-10T19:42:29.083Z,16.98
2022-11-10T19:47:51.180Z,16.99
2022-11-10T19:53:13.128Z,16.97
2022-11-10T19:58:39.204Z,16.98
2022-11-10T20:04:01.385Z,16.98
2022-11-10T20:09:23.458Z,16.98
2022-11-10T20:14:45.297Z,16.97
2022-11-10T20:20:07.659Z,16.96
2022-11-10T20:25:31.973Z,16.96
2022-11-10T20:30:57.105Z,16.93
2022-11-10T20:36:30.821Z,16.92
2022-11-10T20:41:52.829Z,16.94
2022-11-10T20:47:15.415Z,16.93
2022-11-10T20:52:37.500Z,16.90
2022-11-10T20:57:58.936Z,16.93
2022-11-10T21:03:22.909Z,16.91
2022-11-10T21:08:44.818Z,16.89
2022-11-10T21:14:06.539Z,16.90
2022-11-10T21:19:32.845Z,16.89
2022-11-10T21:25:00.575Z,16.88
2022-11-10T21:30:22.557Z,16.85
2022-11-10T21:35:44.925Z,16.83
2022-11-10T21:41:06.202Z,16.82
2022-11-10T21:46:28.737Z,16.79
2022-11-10T21:51:50.569Z,16.80
2022-11-10T21:57:13.113Z,16.80
2022-11-10T22:02:35.483Z,16.79
2022-11-10T22:07:57.399Z,16.81
2022-11-10T22:13:20.639Z,16.81
2022-11-10T22:18:43.450Z,16.83
2022-11-10T22:24:05.403Z,16.81
2022-11-10T22:29:31.684Z,16.80
2022-11-10T22:34:54.459Z,16.79
2022-11-10T22:40:16.440Z,16.76
2022-11-10T22:45:37.906Z,16.76
2022-11-10T22:51:02.531Z,16.74
2022-11-10T22:56:25.241Z,16.74
2022-11-10T23:01:47.484Z,16.71
2022-11-10T23:07:09.949Z,16.73
2022-11-10T23:12:33.989Z,16.72
2022-11-10T23:17:56.290Z,16.72
2022-11-10T23:23:18.567Z,16.72
2022-11-10T23:28:41.053Z,16.75
2022-11-10T23:34:03.337Z,16.75
2022-11-10T23:39:25.481Z,16.78
2022-11-10T23:44:47.149Z,16.77
2022-11-10T23:50:10.114Z,16.75
2022-11-10T23:55:39.899Z,16.78
